sensor_id;sensor_type;location;lat;lon;timestamp;P1;durP1;ratioP1;P2;durP2;ratioP2
54555;SDS011;57291;37.520;15.106;2023-11-21T00:00:00;9.82;;;4.95;;
54555;SDS011;57291;37.520;15.106;2023-11-21T00:02:38;7.78;;;4.68;;
54555;SDS011;57291;37.520;15.106;2023-11-21T00:05:08;10.65;;;4.85;;
54555;SDS011;57291;37.520;15.106;2023-11-21T00:07:37;13.35;;;5.22;;
54555;SDS011;57291;37.520;15.106;2023-11-21T00:10:05;15.73;;;5.82;;
54555;SDS011;57291;37.520;15.106;2023-11-21T00:12:33;12.05;;;4.90;;
54555;SDS011;57291;37.520;15.106;2023-11-21T00:15:01;13.40;;;5.40;;
54555;SDS011;57291;37.520;15.106;2023-11-21T00:17:29;12.43;;;5.28;;
54555;SDS011;57291;37.520;15.106;2023-11-21T00:19:56;12.35;;;5.75;;
54555;SDS011;57291;37.520;15.106;2023-11-21T00:22:23;13.27;;;4.85;;
54555;SDS011;57291;37.520;15.106;2023-11-21T00:24:51;11.35;;;5.05;;
54555;SDS011;57291;37.520;15.106;2023-11-21T00:27:19;13.10;;;5.20;;
54555;SDS011;57291;37.520;15.106;2023-11-21T00:29:47;11.25;;;4.65;;
54555;SDS011;57291;37.520;15.106;2023-11-21T00:32:14;12.60;;;5.05;;
54555;SDS011;57291;37.520;15.106;2023-11-21T00:34:41;13.32;;;5.93;;
54555;SDS011;57291;37.520;15.106;2023-11-21T00:37:09;8.55;;;4.38;;
54555;SDS011;57291;37.520;15.106;2023-11-21T00:39:36;11.57;;;4.68;;
54555;SDS011;57291;37.520;15.106;2023-11-21T00:42:05;10.45;;;4.88;;
54555;SDS011;57291;37.520;15.106;2023-11-21T00:44:33;10.30;;;4.40;;
54555;SDS011;57291;37.520;15.106;2023-11-21T00:47:02;11.32;;;4.00;;
54555;SDS011;57291;37.520;15.106;2023-11-21T00:49:31;10.23;;;4.30;;
54555;SDS011;57291;37.520;15.106;2023-11-21T00:52:00;7.07;;;4.05;;
54555;SDS011;57291;37.520;15.106;2023-11-21T00:54:29;10.63;;;3.42;;
54555;SDS011;57291;37.520;15.106;2023-11-21T00:57:00;12.70;;;3.70;;
54555;SDS011;57291;37.520;15.106;2023-11-21T00:59:27;10.40;;;3.70;;
54555;SDS011;57291;37.520;15.106;2023-11-21T01:01:55;8.57;;;3.90;;
54555;SDS011;57291;37.520;15.106;2023-11-21T01:04:22;10.80;;;3.97;;
54555;SDS011;57291;37.520;15.106;2023-11-21T01:06:50;8.25;;;3.30;;
54555;SDS011;57291;37.520;15.106;2023-11-21T01:09:17;7.30;;;3.55;;
54555;SDS011;57291;37.520;15.106;2023-11-21T01:11:45;6.63;;;3.65;;
54555;SDS011;57291;37.520;15.106;2023-11-21T01:14:13;9.95;;;3.28;;
54555;SDS011;57291;37.520;15.106;2023-11-21T01:16:40;5.63;;;3.10;;
54555;SDS011;57291;37.520;15.106;2023-11-21T01:19:08;10.38;;;3.75;;
54555;SDS011;57291;37.520;15.106;2023-11-21T01:21:36;7.45;;;3.42;;
54555;SDS011;57291;37.520;15.106;2023-11-21T01:24:03;7.68;;;3.40;;
54555;SDS011;57291;37.520;15.106;2023-11-21T01:26:34;9.73;;;3.45;;
54555;SDS011;57291;37.520;15.106;2023-11-21T01:29:01;13.98;;;4.07;;
54555;SDS011;57291;37.520;15.106;2023-11-21T01:31:28;9.50;;;3.58;;
54555;SDS011;57291;37.520;15.106;2023-11-21T01:33:56;6.97;;;3.25;;
54555;SDS011;57291;37.520;15.106;2023-11-21T01:36:29;8.70;;;3.95;;
54555;SDS011;57291;37.520;15.106;2023-11-21T01:38:59;7.60;;;3.28;;
54555;SDS011;57291;37.520;15.106;2023-11-21T01:41:27;6.40;;;3.30;;
54555;SDS011;57291;37.520;15.106;2023-11-21T01:43:55;8.25;;;3.13;;
54555;SDS011;57291;37.520;15.106;2023-11-21T01:46:23;7.80;;;3.40;;
54555;SDS011;57291;37.520;15.106;2023-11-21T01:48:51;6.55;;;3.33;;
54555;SDS011;57291;37.520;15.106;2023-11-21T01:51:19;7.70;;;3.45;;
54555;SDS011;57291;37.520;15.106;2023-11-21T01:53:47;10.48;;;3.40;;
54555;SDS011;57291;37.520;15.106;2023-11-21T01:56:15;7.30;;;3.58;;
54555;SDS011;57291;37.520;15.106;2023-11-21T01:58:43;7.72;;;3.30;;
54555;SDS011;57291;37.520;15.106;2023-11-21T02:01:13;7.07;;;3.13;;
54555;SDS011;57291;37.520;15.106;2023-11-21T02:03:41;10.65;;;2.95;;
54555;SDS011;57291;37.520;15.106;2023-11-21T02:06:08;7.05;;;3.13;;
54555;SDS011;57291;37.520;15.106;2023-11-21T02:08:37;6.22;;;3.08;;
54555;SDS011;57291;37.520;15.106;2023-11-21T02:11:05;7.35;;;3.20;;
54555;SDS011;57291;37.520;15.106;2023-11-21T02:13:33;9.80;;;3.40;;
54555;SDS011;57291;37.520;15.106;2023-11-21T02:16:01;8.63;;;3.33;;
54555;SDS011;57291;37.520;15.106;2023-11-21T02:18:28;5.53;;;2.95;;
54555;SDS011;57291;37.520;15.106;2023-11-21T02:20:56;8.32;;;3.13;;
54555;SDS011;57291;37.520;15.106;2023-11-21T02:23:23;7.43;;;3.28;;
54555;SDS011;57291;37.520;15.106;2023-11-21T02:25:55;8.05;;;3.20;;
54555;SDS011;57291;37.520;15.106;2023-11-21T02:28:23;14.13;;;4.05;;
54555;SDS011;57291;37.520;15.106;2023-11-21T02:30:53;7.30;;;3.10;;
54555;SDS011;57291;37.520;15.106;2023-11-21T02:33:24;9.07;;;3.50;;
54555;SDS011;57291;37.520;15.106;2023-11-21T02:35:52;8.73;;;3.75;;
54555;SDS011;57291;37.520;15.106;2023-11-21T02:38:22;8.45;;;3.42;;
54555;SDS011;57291;37.520;15.106;2023-11-21T02:40:49;9.10;;;2.97;;
54555;SDS011;57291;37.520;15.106;2023-11-21T02:43:16;8.68;;;3.30;;
54555;SDS011;57291;37.520;15.106;2023-11-21T02:45:44;8.75;;;3.40;;
54555;SDS011;57291;37.520;15.106;2023-11-21T02:48:12;6.43;;;3.08;;
54555;SDS011;57291;37.520;15.106;2023-11-21T02:50:39;6.18;;;3.30;;
54555;SDS011;57291;37.520;15.106;2023-11-21T02:53:06;10.70;;;3.70;;
54555;SDS011;57291;37.520;15.106;2023-11-21T02:55:34;8.07;;;3.50;;
54555;SDS011;57291;37.520;15.106;2023-11-21T02:58:02;7.60;;;3.33;;
54555;SDS011;57291;37.520;15.106;2023-11-21T03:00:30;10.90;;;3.70;;
54555;SDS011;57291;37.520;15.106;2023-11-21T03:02:58;9.05;;;3.47;;
54555;SDS011;57291;37.520;15.106;2023-11-21T03:05:27;8.85;;;3.42;;
54555;SDS011;57291;37.520;15.106;2023-11-21T03:07:56;7.38;;;3.50;;
54555;SDS011;57291;37.520;15.106;2023-11-21T03:10:25;7.55;;;3.42;;
54555;SDS011;57291;37.520;15.106;2023-11-21T03:12:52;8.70;;;3.35;;
54555;SDS011;57291;37.520;15.106;2023-11-21T03:15:20;8.35;;;2.97;;
54555;SDS011;57291;37.520;15.106;2023-11-21T03:17:47;7.32;;;3.10;;
54555;SDS011;57291;37.520;15.106;2023-11-21T03:20:16;8.32;;;2.65;;
54555;SDS011;57291;37.520;15.106;2023-11-21T03:22:46;7.50;;;2.95;;
54555;SDS011;57291;37.520;15.106;2023-11-21T03:25:14;9.23;;;3.60;;
54555;SDS011;57291;37.520;15.106;2023-11-21T03:27:44;6.30;;;3.08;;
54555;SDS011;57291;37.520;15.106;2023-11-21T03:30:11;6.35;;;2.95;;
54555;SDS011;57291;37.520;15.106;2023-11-21T03:32:40;7.28;;;3.10;;
54555;SDS011;57291;37.520;15.106;2023-11-21T03:35:07;8.48;;;4.30;;
54555;SDS011;57291;37.520;15.106;2023-11-21T03:37:35;10.57;;;4.55;;
54555;SDS011;57291;37.520;15.106;2023-11-21T03:40:02;9.60;;;4.13;;
54555;SDS011;57291;37.520;15.106;2023-11-21T03:42:31;11.55;;;3.75;;
54555;SDS011;57291;37.520;15.106;2023-11-21T03:44:58;8.05;;;3.88;;
54555;SDS011;57291;37.520;15.106;2023-11-21T03:47:28;8.98;;;3.90;;
54555;SDS011;57291;37.520;15.106;2023-11-21T03:49:55;7.40;;;3.45;;
54555;SDS011;57291;37.520;15.106;2023-11-21T03:52:23;7.65;;;3.65;;
54555;SDS011;57291;37.520;15.106;2023-11-21T03:54:51;7.25;;;3.60;;
54555;SDS011;57291;37.520;15.106;2023-11-21T03:57:18;8.52;;;3.33;;
54555;SDS011;57291;37.520;15.106;2023-11-21T03:59:46;9.23;;;3.50;;
54555;SDS011;57291;37.520;15.106;2023-11-21T04:02:14;11.88;;;3.35;;
54555;SDS011;57291;37.520;15.106;2023-11-21T04:04:41;8.90;;;3.60;;
54555;SDS011;57291;37.520;15.106;2023-11-21T04:07:09;9.88;;;3.03;;
54555;SDS011;57291;37.520;15.106;2023-11-21T04:09:36;8.18;;;3.00;;
54555;SDS011;57291;37.520;15.106;2023-11-21T04:12:03;8.15;;;3.13;;
54555;SDS011;57291;37.520;15.106;2023-11-21T04:14:31;6.80;;;3.00;;
54555;SDS011;57291;37.520;15.106;2023-11-21T04:16:58;9.05;;;3.40;;
54555;SDS011;57291;37.520;15.106;2023-11-21T04:19:26;12.15;;;3.58;;
54555;SDS011;57291;37.520;15.106;2023-11-21T04:21:53;8.25;;;3.58;;
54555;SDS011;57291;37.520;15.106;2023-11-21T04:24:20;7.88;;;3.08;;
54555;SDS011;57291;37.520;15.106;2023-11-21T04:26:48;6.82;;;3.00;;
54555;SDS011;57291;37.520;15.106;2023-11-21T04:29:15;7.85;;;3.58;;
54555;SDS011;57291;37.520;15.106;2023-11-21T04:31:42;6.32;;;3.03;;
54555;SDS011;57291;37.520;15.106;2023-11-21T04:34:10;7.78;;;3.42;;
54555;SDS011;57291;37.520;15.106;2023-11-21T04:36:37;7.60;;;3.38;;
54555;SDS011;57291;37.520;15.106;2023-11-21T04:39:05;8.77;;;3.38;;
54555;SDS011;57291;37.520;15.106;2023-11-21T04:41:33;9.20;;;3.13;;
54555;SDS011;57291;37.520;15.106;2023-11-21T04:44:00;10.95;;;3.40;;
54555;SDS011;57291;37.520;15.106;2023-11-21T04:46:28;5.03;;;2.90;;
54555;SDS011;57291;37.520;15.106;2023-11-21T04:48:55;7.25;;;2.85;;
54555;SDS011;57291;37.520;15.106;2023-11-21T04:51:22;5.22;;;2.80;;
54555;SDS011;57291;37.520;15.106;2023-11-21T04:53:50;5.75;;;2.80;;
54555;SDS011;57291;37.520;15.106;2023-11-21T04:56:21;6.20;;;2.72;;
54555;SDS011;57291;37.520;15.106;2023-11-21T04:58:48;4.85;;;2.50;;
54555;SDS011;57291;37.520;15.106;2023-11-21T05:01:15;8.68;;;3.30;;
54555;SDS011;57291;37.520;15.106;2023-11-21T05:03:43;6.82;;;3.30;;
54555;SDS011;57291;37.520;15.106;2023-11-21T05:06:11;5.88;;;3.25;;
54555;SDS011;57291;37.520;15.106;2023-11-21T05:08:38;7.43;;;3.38;;
54555;SDS011;57291;37.520;15.106;2023-11-21T05:11:06;10.25;;;4.18;;
54555;SDS011;57291;37.520;15.106;2023-11-21T05:13:37;7.38;;;3.70;;
54555;SDS011;57291;37.520;15.106;2023-11-21T05:16:06;8.23;;;3.70;;
54555;SDS011;57291;37.520;15.106;2023-11-21T05:18:35;8.02;;;3.03;;
54555;SDS011;57291;37.520;15.106;2023-11-21T05:21:02;8.57;;;3.83;;
54555;SDS011;57291;37.520;15.106;2023-11-21T05:23:29;8.50;;;3.60;;
54555;SDS011;57291;37.520;15.106;2023-11-21T05:25:57;7.68;;;3.50;;
54555;SDS011;57291;37.520;15.106;2023-11-21T05:28:24;8.70;;;3.97;;
54555;SDS011;57291;37.520;15.106;2023-11-21T05:30:52;6.60;;;3.20;;
54555;SDS011;57291;37.520;15.106;2023-11-21T05:33:40;8.07;;;3.10;;
54555;SDS011;57291;37.520;15.106;2023-11-21T05:36:07;6.05;;;3.00;;
54555;SDS011;57291;37.520;15.106;2023-11-21T05:38:36;6.82;;;3.03;;
54555;SDS011;57291;37.520;15.106;2023-11-21T05:41:04;6.07;;;3.10;;
54555;SDS011;57291;37.520;15.106;2023-11-21T05:43:31;9.85;;;3.30;;
54555;SDS011;57291;37.520;15.106;2023-11-21T05:46:02;12.45;;;3.50;;
54555;SDS011;57291;37.520;15.106;2023-11-21T05:48:29;7.68;;;3.53;;
54555;SDS011;57291;37.520;15.106;2023-11-21T05:50:57;6.80;;;3.10;;
54555;SDS011;57291;37.520;15.106;2023-11-21T05:53:24;6.53;;;3.13;;
54555;SDS011;57291;37.520;15.106;2023-11-21T05:55:52;8.13;;;2.67;;
54555;SDS011;57291;37.520;15.106;2023-11-21T05:58:20;6.30;;;2.80;;
54555;SDS011;57291;37.520;15.106;2023-11-21T06:00:47;6.78;;;2.50;;
54555;SDS011;57291;37.520;15.106;2023-11-21T06:03:15;5.57;;;2.83;;
54555;SDS011;57291;37.520;15.106;2023-11-21T06:05:44;7.22;;;3.45;;
54555;SDS011;57291;37.520;15.106;2023-11-21T06:08:11;6.72;;;3.30;;
54555;SDS011;57291;37.520;15.106;2023-11-21T06:10:38;9.98;;;3.85;;
54555;SDS011;57291;37.520;15.106;2023-11-21T06:13:06;8.20;;;2.88;;
54555;SDS011;57291;37.520;15.106;2023-11-21T06:15:34;8.52;;;3.10;;
54555;SDS011;57291;37.520;15.106;2023-11-21T06:18:01;9.38;;;3.40;;
54555;SDS011;57291;37.520;15.106;2023-11-21T06:20:29;15.35;;;3.15;;
54555;SDS011;57291;37.520;15.106;2023-11-21T06:22:56;8.57;;;3.78;;
54555;SDS011;57291;37.520;15.106;2023-11-21T06:25:24;5.68;;;3.13;;
54555;SDS011;57291;37.520;15.106;2023-11-21T06:27:51;9.63;;;3.03;;
54555;SDS011;57291;37.520;15.106;2023-11-21T06:30:20;6.70;;;2.60;;
54555;SDS011;57291;37.520;15.106;2023-11-21T06:32:48;7.28;;;2.40;;
54555;SDS011;57291;37.520;15.106;2023-11-21T06:35:17;6.40;;;2.67;;
54555;SDS011;57291;37.520;15.106;2023-11-21T06:37:44;5.95;;;2.95;;
54555;SDS011;57291;37.520;15.106;2023-11-21T06:40:17;8.75;;;3.63;;
54555;SDS011;57291;37.520;15.106;2023-11-21T06:42:46;7.65;;;3.10;;
54555;SDS011;57291;37.520;15.106;2023-11-21T06:45:15;9.68;;;2.67;;
54555;SDS011;57291;37.520;15.106;2023-11-21T06:47:43;5.53;;;2.13;;
54555;SDS011;57291;37.520;15.106;2023-11-21T06:50:11;5.53;;;1.90;;
54555;SDS011;57291;37.520;15.106;2023-11-21T06:52:38;5.53;;;2.47;;
54555;SDS011;57291;37.520;15.106;2023-11-21T06:55:06;6.40;;;2.03;;
54555;SDS011;57291;37.520;15.106;2023-11-21T06:57:35;3.83;;;1.65;;
54555;SDS011;57291;37.520;15.106;2023-11-21T07:00:03;5.72;;;2.05;;
54555;SDS011;57291;37.520;15.106;2023-11-21T07:02:31;5.97;;;1.80;;
54555;SDS011;57291;37.520;15.106;2023-11-21T07:04:59;7.47;;;1.77;;
54555;SDS011;57291;37.520;15.106;2023-11-21T07:07:27;4.68;;;1.83;;
54555;SDS011;57291;37.520;15.106;2023-11-21T07:09:54;8.25;;;1.90;;
54555;SDS011;57291;37.520;15.106;2023-11-21T07:12:22;7.75;;;1.88;;
54555;SDS011;57291;37.520;15.106;2023-11-21T07:14:50;6.03;;;1.73;;
54555;SDS011;57291;37.520;15.106;2023-11-21T07:17:18;10.68;;;2.00;;
54555;SDS011;57291;37.520;15.106;2023-11-21T07:19:45;6.78;;;2.50;;
54555;SDS011;57291;37.520;15.106;2023-11-21T07:22:13;4.72;;;2.08;;
54555;SDS011;57291;37.520;15.106;2023-11-21T07:24:41;4.85;;;2.45;;
54555;SDS011;57291;37.520;15.106;2023-11-21T07:27:10;9.13;;;2.22;;
54555;SDS011;57291;37.520;15.106;2023-11-21T07:29:37;5.68;;;2.03;;
54555;SDS011;57291;37.520;15.106;2023-11-21T07:32:04;5.28;;;1.77;;
54555;SDS011;57291;37.520;15.106;2023-11-21T07:34:32;4.25;;;1.75;;
54555;SDS011;57291;37.520;15.106;2023-11-21T07:37:00;8.40;;;1.92;;
54555;SDS011;57291;37.520;15.106;2023-11-21T07:39:28;4.78;;;1.67;;
54555;SDS011;57291;37.520;15.106;2023-11-21T07:41:56;5.85;;;1.70;;
54555;SDS011;57291;37.520;15.106;2023-11-21T07:44:24;5.65;;;2.20;;
54555;SDS011;57291;37.520;15.106;2023-11-21T07:46:53;5.38;;;1.95;;
54555;SDS011;57291;37.520;15.106;2023-11-21T07:49:24;7.40;;;2.20;;
54555;SDS011;57291;37.520;15.106;2023-11-21T07:51:53;6.45;;;2.20;;
54555;SDS011;57291;37.520;15.106;2023-11-21T07:54:20;7.25;;;2.00;;
54555;SDS011;57291;37.520;15.106;2023-11-21T07:56:48;6.90;;;2.00;;
54555;SDS011;57291;37.520;15.106;2023-11-21T07:59:15;6.35;;;2.20;;
54555;SDS011;57291;37.520;15.106;2023-11-21T08:01:44;9.20;;;2.00;;
54555;SDS011;57291;37.520;15.106;2023-11-21T08:04:12;6.07;;;1.90;;
54555;SDS011;57291;37.520;15.106;2023-11-21T08:06:40;7.53;;;1.85;;
54555;SDS011;57291;37.520;15.106;2023-11-21T08:09:08;8.25;;;2.28;;
54555;SDS011;57291;37.520;15.106;2023-11-21T08:11:36;5.20;;;2.03;;
54555;SDS011;57291;37.520;15.106;2023-11-21T08:14:05;5.72;;;1.95;;
54555;SDS011;57291;37.520;15.106;2023-11-21T08:16:33;7.32;;;2.42;;
54555;SDS011;57291;37.520;15.106;2023-11-21T08:19:00;7.35;;;2.45;;
54555;SDS011;57291;37.520;15.106;2023-11-21T08:21:28;12.10;;;2.70;;
54555;SDS011;57291;37.520;15.106;2023-11-21T08:23:56;7.13;;;1.88;;
54555;SDS011;57291;37.520;15.106;2023-11-21T08:26:23;10.30;;;1.75;;
54555;SDS011;57291;37.520;15.106;2023-11-21T08:28:51;4.95;;;1.58;;
54555;SDS011;57291;37.520;15.106;2023-11-21T08:31:24;4.28;;;1.88;;
54555;SDS011;57291;37.520;15.106;2023-11-21T08:33:52;5.70;;;1.65;;
54555;SDS011;57291;37.520;15.106;2023-11-21T08:36:23;6.35;;;2.50;;
54555;SDS011;57291;37.520;15.106;2023-11-21T08:38:51;4.90;;;1.65;;
54555;SDS011;57291;37.520;15.106;2023-11-21T08:41:21;7.38;;;2.03;;
54555;SDS011;57291;37.520;15.106;2023-11-21T08:43:49;3.35;;;1.52;;
54555;SDS011;57291;37.520;15.106;2023-11-21T08:46:18;9.10;;;1.88;;
54555;SDS011;57291;37.520;15.106;2023-11-21T08:48:47;8.75;;;1.70;;
54555;SDS011;57291;37.520;15.106;2023-11-21T08:51:16;9.15;;;1.60;;
54555;SDS011;57291;37.520;15.106;2023-11-21T08:53:44;10.05;;;2.03;;
54555;SDS011;57291;37.520;15.106;2023-11-21T08:56:14;6.53;;;2.55;;
54555;SDS011;57291;37.520;15.106;2023-11-21T08:58:42;8.52;;;1.52;;
54555;SDS011;57291;37.520;15.106;2023-11-21T09:01:09;7.45;;;1.90;;
54555;SDS011;57291;37.520;15.106;2023-11-21T09:03:37;7.68;;;1.77;;
54555;SDS011;57291;37.520;15.106;2023-11-21T09:06:05;6.00;;;2.67;;
54555;SDS011;57291;37.520;15.106;2023-11-21T09:08:33;12.57;;;1.75;;
54555;SDS011;57291;37.520;15.106;2023-11-21T09:11:00;6.00;;;2.00;;
54555;SDS011;57291;37.520;15.106;2023-11-21T09:13:27;7.93;;;1.80;;
54555;SDS011;57291;37.520;15.106;2023-11-21T09:15:56;8.23;;;2.22;;
54555;SDS011;57291;37.520;15.106;2023-11-21T09:18:23;6.50;;;2.78;;
54555;SDS011;57291;37.520;15.106;2023-11-21T09:20:51;9.93;;;2.20;;
54555;SDS011;57291;37.520;15.106;2023-11-21T09:23:18;8.85;;;1.98;;
54555;SDS011;57291;37.520;15.106;2023-11-21T09:25:45;9.63;;;2.30;;
54555;SDS011;57291;37.520;15.106;2023-11-21T09:28:15;4.75;;;2.20;;
54555;SDS011;57291;37.520;15.106;2023-11-21T09:30:44;7.78;;;1.70;;
54555;SDS011;57291;37.520;15.106;2023-11-21T09:33:11;7.72;;;1.60;;
54555;SDS011;57291;37.520;15.106;2023-11-21T09:35:38;7.38;;;1.70;;
54555;SDS011;57291;37.520;15.106;2023-11-21T09:38:06;7.40;;;1.70;;
54555;SDS011;57291;37.520;15.106;2023-11-21T09:40:38;5.28;;;1.48;;
54555;SDS011;57291;37.520;15.106;2023-11-21T09:43:06;4.43;;;1.52;;
54555;SDS011;57291;37.520;15.106;2023-11-21T09:46:01;6.28;;;1.73;;
54555;SDS011;57291;37.520;15.106;2023-11-21T09:48:29;10.85;;;1.88;;
54555;SDS011;57291;37.520;15.106;2023-11-21T09:50:57;6.72;;;1.77;;
54555;SDS011;57291;37.520;15.106;2023-11-21T09:53:26;5.50;;;1.83;;
54555;SDS011;57291;37.520;15.106;2023-11-21T09:56:00;6.25;;;1.58;;
54555;SDS011;57291;37.520;15.106;2023-11-21T09:58:29;9.85;;;1.73;;
54555;SDS011;57291;37.520;15.106;2023-11-21T10:01:00;7.60;;;2.30;;
54555;SDS011;57291;37.520;15.106;2023-11-21T10:03:30;7.13;;;2.35;;
54555;SDS011;57291;37.520;15.106;2023-11-21T10:05:57;5.68;;;2.38;;
54555;SDS011;57291;37.520;15.106;2023-11-21T10:08:28;5.20;;;1.75;;
54555;SDS011;57291;37.520;15.106;2023-11-21T10:11:15;9.25;;;2.03;;
54555;SDS011;57291;37.520;15.106;2023-11-21T10:13:46;6.78;;;1.63;;
54555;SDS011;57291;37.520;15.106;2023-11-21T10:16:16;5.75;;;1.80;;
54555;SDS011;57291;37.520;15.106;2023-11-21T10:18:49;7.90;;;1.83;;
54555;SDS011;57291;37.520;15.106;2023-11-21T10:21:19;4.38;;;1.58;;
54555;SDS011;57291;37.520;15.106;2023-11-21T10:23:47;5.85;;;1.65;;
54555;SDS011;57291;37.520;15.106;2023-11-21T10:26:14;6.10;;;1.73;;
54555;SDS011;57291;37.520;15.106;2023-11-21T10:29:00;4.23;;;1.57;;
54555;SDS011;57291;37.520;15.106;2023-11-21T10:31:33;5.18;;;1.70;;
54555;SDS011;57291;37.520;15.106;2023-11-21T10:34:18;7.57;;;1.70;;
54555;SDS011;57291;37.520;15.106;2023-11-21T10:36:47;7.20;;;1.50;;
54555;SDS011;57291;37.520;15.106;2023-11-21T10:39:17;4.28;;;1.75;;
54555;SDS011;57291;37.520;15.106;2023-11-21T10:41:46;10.77;;;2.00;;
54555;SDS011;57291;37.520;15.106;2023-11-21T10:44:18;10.82;;;2.00;;
54555;SDS011;57291;37.520;15.106;2023-11-21T10:46:51;8.90;;;1.85;;
54555;SDS011;57291;37.520;15.106;2023-11-21T10:49:26;15.70;;;2.33;;
54555;SDS011;57291;37.520;15.106;2023-11-21T10:51:55;17.42;;;2.20;;
54555;SDS011;57291;37.520;15.106;2023-11-21T10:54:24;10.95;;;2.30;;
54555;SDS011;57291;37.520;15.106;2023-11-21T10:56:53;16.73;;;2.63;;
54555;SDS011;57291;37.520;15.106;2023-11-21T10:59:28;16.13;;;2.22;;
54555;SDS011;57291;37.520;15.106;2023-11-21T11:01:58;18.00;;;2.40;;
54555;SDS011;57291;37.520;15.106;2023-11-21T11:04:29;15.40;;;2.25;;
54555;SDS011;57291;37.520;15.106;2023-11-21T11:07:00;13.25;;;2.13;;
54555;SDS011;57291;37.520;15.106;2023-11-21T11:09:32;11.05;;;2.35;;
54555;SDS011;57291;37.520;15.106;2023-11-21T11:12:04;13.20;;;2.08;;
54555;SDS011;57291;37.520;15.106;2023-11-21T11:14:32;13.52;;;2.15;;
54555;SDS011;57291;37.520;15.106;2023-11-21T11:17:00;17.30;;;2.70;;
54555;SDS011;57291;37.520;15.106;2023-11-21T11:19:29;9.70;;;2.03;;
54555;SDS011;57291;37.520;15.106;2023-11-21T11:29:49;13.52;;;2.80;;
54555;SDS011;57291;37.520;15.106;2023-11-21T11:32:40;23.42;;;2.92;;
54555;SDS011;57291;37.520;15.106;2023-11-21T11:38:33;10.68;;;2.50;;
54555;SDS011;57291;37.520;15.106;2023-11-21T11:41:03;12.00;;;1.95;;
54555;SDS011;57291;37.520;15.106;2023-11-21T11:43:32;16.20;;;2.17;;
54555;SDS011;57291;37.520;15.106;2023-11-21T11:46:07;15.15;;;2.25;;
54555;SDS011;57291;37.520;15.106;2023-11-21T11:48:37;20.73;;;2.35;;
54555;SDS011;57291;37.520;15.106;2023-11-21T11:51:09;15.73;;;2.40;;
54555;SDS011;57291;37.520;15.106;2023-11-21T11:53:44;16.42;;;2.28;;
54555;SDS011;57291;37.520;15.106;2023-11-21T11:56:29;17.30;;;2.40;;
54555;SDS011;57291;37.520;15.106;2023-11-21T11:59:01;13.73;;;2.33;;
54555;SDS011;57291;37.520;15.106;2023-11-21T12:06:47;14.60;;;2.50;;
54555;SDS011;57291;37.520;15.106;2023-11-21T12:09:23;14.77;;;2.00;;
54555;SDS011;57291;37.520;15.106;2023-11-21T12:11:51;15.82;;;2.35;;
54555;SDS011;57291;37.520;15.106;2023-11-21T12:14:24;11.18;;;2.00;;
54555;SDS011;57291;37.520;15.106;2023-11-21T12:16:52;18.48;;;2.90;;
54555;SDS011;57291;37.520;15.106;2023-11-21T12:19:27;12.80;;;2.00;;
54555;SDS011;57291;37.520;15.106;2023-11-21T12:21:55;20.35;;;2.22;;
54555;SDS011;57291;37.520;15.106;2023-11-21T12:24:29;12.57;;;2.35;;
54555;SDS011;57291;37.520;15.106;2023-11-21T12:26:57;24.42;;;2.17;;
54555;SDS011;57291;37.520;15.106;2023-11-21T12:29:30;17.02;;;3.00;;
54555;SDS011;57291;37.520;15.106;2023-11-21T12:32:00;9.38;;;1.83;;
54555;SDS011;57291;37.520;15.106;2023-11-21T12:34:27;12.73;;;2.40;;
54555;SDS011;57291;37.520;15.106;2023-11-21T12:36:55;13.73;;;2.50;;
54555;SDS011;57291;37.520;15.106;2023-11-21T12:39:23;14.32;;;2.22;;
54555;SDS011;57291;37.520;15.106;2023-11-21T12:41:51;15.07;;;2.58;;
54555;SDS011;57291;37.520;15.106;2023-11-21T12:44:20;8.35;;;1.90;;
54555;SDS011;57291;37.520;15.106;2023-11-21T12:46:50;12.55;;;2.47;;
54555;SDS011;57291;37.520;15.106;2023-11-21T12:49:22;13.35;;;2.28;;
54555;SDS011;57291;37.520;15.106;2023-11-21T12:51:56;9.57;;;2.45;;
54555;SDS011;57291;37.520;15.106;2023-11-21T12:54:24;11.93;;;1.90;;
54555;SDS011;57291;37.520;15.106;2023-11-21T12:56:54;7.32;;;1.95;;
54555;SDS011;57291;37.520;15.106;2023-11-21T12:59:26;10.77;;;2.05;;
54555;SDS011;57291;37.520;15.106;2023-11-21T13:02:00;16.77;;;1.92;;
54555;SDS011;57291;37.520;15.106;2023-11-21T13:04:33;12.27;;;2.28;;
54555;SDS011;57291;37.520;15.106;2023-11-21T13:07:05;10.30;;;2.03;;
54555;SDS011;57291;37.520;15.106;2023-11-21T13:09:41;9.02;;;1.80;;
54555;SDS011;57291;37.520;15.106;2023-11-21T13:12:09;11.13;;;2.33;;
54555;SDS011;57291;37.520;15.106;2023-11-21T13:14:37;12.23;;;2.75;;
54555;SDS011;57291;37.520;15.106;2023-11-21T13:17:06;9.93;;;2.10;;
54555;SDS011;57291;37.520;15.106;2023-11-21T13:19:34;13.50;;;2.25;;
54555;SDS011;57291;37.520;15.106;2023-11-21T13:22:01;12.43;;;2.13;;
54555;SDS011;57291;37.520;15.106;2023-11-21T13:24:31;13.38;;;2.40;;
54555;SDS011;57291;37.520;15.106;2023-11-21T13:26:59;14.63;;;2.30;;
54555;SDS011;57291;37.520;15.106;2023-11-21T13:29:26;10.43;;;2.17;;
54555;SDS011;57291;37.520;15.106;2023-11-21T13:31:54;10.07;;;2.20;;
54555;SDS011;57291;37.520;15.106;2023-11-21T13:34:22;12.02;;;2.65;;
54555;SDS011;57291;37.520;15.106;2023-11-21T13:36:57;11.18;;;2.15;;
54555;SDS011;57291;37.520;15.106;2023-11-21T13:39:27;7.05;;;1.85;;
54555;SDS011;57291;37.520;15.106;2023-11-21T13:41:55;7.13;;;1.77;;
54555;SDS011;57291;37.520;15.106;2023-11-21T13:44:23;9.63;;;2.08;;
54555;SDS011;57291;37.520;15.106;2023-11-21T13:46:56;5.88;;;2.53;;
54555;SDS011;57291;37.520;15.106;2023-11-21T13:49:25;11.82;;;2.13;;
54555;SDS011;57291;37.520;15.106;2023-11-21T13:51:53;18.35;;;2.22;;
54555;SDS011;57291;37.520;15.106;2023-11-21T13:54:22;8.93;;;2.35;;
54555;SDS011;57291;37.520;15.106;2023-11-21T13:56:52;10.50;;;2.38;;
54555;SDS011;57291;37.520;15.106;2023-11-21T13:59:23;8.55;;;1.60;;
54555;SDS011;57291;37.520;15.106;2023-11-21T14:01:52;11.07;;;1.98;;
54555;SDS011;57291;37.520;15.106;2023-11-21T14:04:21;9.43;;;2.25;;
54555;SDS011;57291;37.520;15.106;2023-11-21T14:06:58;9.43;;;2.00;;
54555;SDS011;57291;37.520;15.106;2023-11-21T14:09:28;10.27;;;2.30;;
54555;SDS011;57291;37.520;15.106;2023-11-21T14:12:12;12.18;;;1.95;;
54555;SDS011;57291;37.520;15.106;2023-11-21T14:14:44;9.50;;;1.98;;
54555;SDS011;57291;37.520;15.106;2023-11-21T14:17:15;13.60;;;2.40;;
54555;SDS011;57291;37.520;15.106;2023-11-21T14:19:44;8.65;;;1.95;;
54555;SDS011;57291;37.520;15.106;2023-11-21T14:22:12;10.38;;;1.70;;
54555;SDS011;57291;37.520;15.106;2023-11-21T14:24:53;14.13;;;2.10;;
54555;SDS011;57291;37.520;15.106;2023-11-21T14:27:30;9.77;;;2.15;;
54555;SDS011;57291;37.520;15.106;2023-11-21T14:30:02;10.95;;;1.83;;
54555;SDS011;57291;37.520;15.106;2023-11-21T14:32:39;10.18;;;2.20;;
54555;SDS011;57291;37.520;15.106;2023-11-21T14:35:19;8.18;;;1.75;;
54555;SDS011;57291;37.520;15.106;2023-11-21T14:37:53;11.50;;;2.40;;
54555;SDS011;57291;37.520;15.106;2023-11-21T14:40:28;11.85;;;2.08;;
54555;SDS011;57291;37.520;15.106;2023-11-21T14:43:04;11.40;;;2.20;;
54555;SDS011;57291;37.520;15.106;2023-11-21T14:45:39;10.40;;;2.05;;
54555;SDS011;57291;37.520;15.106;2023-11-21T14:48:10;10.10;;;2.28;;
54555;SDS011;57291;37.520;15.106;2023-11-21T14:50:46;8.95;;;2.55;;
54555;SDS011;57291;37.520;15.106;2023-11-21T14:53:37;10.82;;;2.25;;
54555;SDS011;57291;37.520;15.106;2023-11-21T14:56:21;10.35;;;2.50;;
54555;SDS011;57291;37.520;15.106;2023-11-21T14:58:54;11.35;;;2.33;;